Reardan, WA (99029)

4:32 AM PDT on August 25, 2016 (GMT -0700)
Four Mound Prairie | | Change Station

Elev 2452 ft 47.78 °N, 117.73 °W | Updated 26 seconds ago

Clear
Clear
55.0 °F
Feels Like 55.0 °F
N
3.1
Wind Variable Wind from East
Gusts 4.5 mph

Today
High -- | Low -- °F
--% Chance of Precip.
Yesterday
High -- | Low -- °F
Precip. -- in
Pressure 30.16 in
Visibility 10.0 miles
Clouds Clear
Dew Point 42 °F
Humidity 61%
Rainfall 0.00 in
Snow Depth Not available.
6:00 AM 7:44 PM
Waning Gibbous, 46% visible
METAR KSKA 251058Z AUTO 07003KT 10SM CLR 14/03 A3018 RMK AO2 SLP211 T01350034
Pressure 30.16 in
Visibility 10.0 miles
Clouds Clear
Dew Point 42 °F
Humidity 61%
Rainfall 0.00 in
Snow Depth Not available.
6:00 AM 7:44 PM
Waning Gibbous, 46% visible
METAR KSKA 251058Z AUTO 07003KT 10SM CLR 14/03 A3018 RMK AO2 SLP211 T01350034

10-Day Weather Forecast

Almanac

Astronomy

Aug. 25, 2016 Rise Set
Actual Time
Civil Twilight
Nautical Twilight
Astronomical Twilight
Moon
Length of Visible Light
Length of Day
Tomorrow will be .
, % of the Moon is Illuminated

Today's Extremes

State Highs State Lows

Community

WunderPhotos

Upload Photos

1,934,822 photos uploaded!

WunderBlog® & News

Nearby

Air Quality

  Air Quality AQ Index Pollutant
Not available.

Snow Depth

Station Depth Elevation

Earthquake Activity

City Distance Mag. Time & Date
Minimum magnitude displayed is 2.5.

Coastal Water Temperatures

Place Temperature

Stations

Nearby Weather Stations

Station Location Temp. Windchill Dew Point Humidity Wind Precip. Elev Updated Type
                   

Watches & Warnings

There are currently no watches in effect.